sensor_id;sensor_type;location;lat;lon;timestamp;P1;durP1;ratioP1;P2;durP2;ratioP2
53207;SDS011;39093;52.788;6.940;2022-12-18T00:01:21;115.13;;;44.25;;
53207;SDS011;39093;52.788;6.940;2022-12-18T00:03:50;112.50;;;44.63;;
53207;SDS011;39093;52.788;6.940;2022-12-18T00:06:18;116.63;;;44.03;;
53207;SDS011;39093;52.788;6.940;2022-12-18T00:08:46;111.97;;;44.83;;
53207;SDS011;39093;52.788;6.940;2022-12-18T00:11:15;109.88;;;43.72;;
53207;SDS011;39093;52.788;6.940;2022-12-18T00:13:43;108.00;;;42.90;;
53207;SDS011;39093;52.788;6.940;2022-12-18T00:16:12;111.90;;;43.95;;
53207;SDS011;39093;52.788;6.940;2022-12-18T00:18:40;116.40;;;43.97;;
53207;SDS011;39093;52.788;6.940;2022-12-18T00:21:09;123.28;;;45.50;;
53207;SDS011;39093;52.788;6.940;2022-12-18T00:23:37;115.10;;;45.55;;
53207;SDS011;39093;52.788;6.940;2022-12-18T00:26:07;113.80;;;45.20;;
53207;SDS011;39093;52.788;6.940;2022-12-18T00:28:37;114.70;;;44.80;;
53207;SDS011;39093;52.788;6.940;2022-12-18T00:31:05;112.55;;;43.63;;
53207;SDS011;39093;52.788;6.940;2022-12-18T00:33:42;126.18;;;45.58;;
53207;SDS011;39093;52.788;6.940;2022-12-18T00:36:17;117.88;;;44.05;;
53207;SDS011;39093;52.788;6.940;2022-12-18T00:38:47;107.20;;;44.60;;
53207;SDS011;39093;52.788;6.940;2022-12-18T00:41:15;109.40;;;43.92;;
53207;SDS011;39093;52.788;6.940;2022-12-18T00:44:04;109.25;;;43.42;;
53207;SDS011;39093;52.788;6.940;2022-12-18T00:46:32;117.15;;;44.70;;
53207;SDS011;39093;52.788;6.940;2022-12-18T00:48:59;111.57;;;44.40;;
53207;SDS011;39093;52.788;6.940;2022-12-18T00:51:26;123.50;;;47.72;;
53207;SDS011;39093;52.788;6.940;2022-12-18T00:53:54;126.50;;;45.45;;
53207;SDS011;39093;52.788;6.940;2022-12-18T00:56:21;121.68;;;47.72;;
53207;SDS011;39093;52.788;6.940;2022-12-18T00:58:48;137.02;;;49.00;;
53207;SDS011;39093;52.788;6.940;2022-12-18T01:01:15;122.53;;;46.80;;
53207;SDS011;39093;52.788;6.940;2022-12-18T01:03:43;137.20;;;50.45;;
53207;SDS011;39093;52.788;6.940;2022-12-18T01:06:13;141.10;;;50.25;;
53207;SDS011;39093;52.788;6.940;2022-12-18T01:08:43;138.75;;;46.40;;
53207;SDS011;39093;52.788;6.940;2022-12-18T01:11:12;138.38;;;48.10;;
53207;SDS011;39093;52.788;6.940;2022-12-18T01:13:44;140.35;;;49.13;;
53207;SDS011;39093;52.788;6.940;2022-12-18T01:16:12;144.02;;;48.45;;
53207;SDS011;39093;52.788;6.940;2022-12-18T01:18:41;140.32;;;51.30;;
53207;SDS011;39093;52.788;6.940;2022-12-18T01:21:12;136.00;;;51.00;;
53207;SDS011;39093;52.788;6.940;2022-12-18T01:23:41;149.63;;;50.95;;
53207;SDS011;39093;52.788;6.940;2022-12-18T01:26:09;152.23;;;50.15;;
53207;SDS011;39093;52.788;6.940;2022-12-18T01:28:38;139.18;;;47.80;;
53207;SDS011;39093;52.788;6.940;2022-12-18T01:31:10;140.60;;;47.80;;
53207;SDS011;39093;52.788;6.940;2022-12-18T01:33:48;141.65;;;48.55;;
53207;SDS011;39093;52.788;6.940;2022-12-18T01:38:50;127.25;;;46.65;;
53207;SDS011;39093;52.788;6.940;2022-12-18T01:41:19;123.70;;;46.50;;
53207;SDS011;39093;52.788;6.940;2022-12-18T01:43:52;115.07;;;44.22;;
53207;SDS011;39093;52.788;6.940;2022-12-18T01:48:50;101.13;;;40.78;;
53207;SDS011;39093;52.788;6.940;2022-12-18T01:51:22;110.05;;;38.33;;
53207;SDS011;39093;52.788;6.940;2022-12-18T01:53:49;93.68;;;38.30;;
53207;SDS011;39093;52.788;6.940;2022-12-18T01:56:16;97.00;;;38.08;;
53207;SDS011;39093;52.788;6.940;2022-12-18T02:01:28;92.47;;;37.35;;
53207;SDS011;39093;52.788;6.940;2022-12-18T02:04:13;81.40;;;33.95;;
53207;SDS011;39093;52.788;6.940;2022-12-18T02:07:03;87.03;;;35.15;;
53207;SDS011;39093;52.788;6.940;2022-12-18T02:09:46;87.47;;;34.60;;
53207;SDS011;39093;52.788;6.940;2022-12-18T02:12:21;92.72;;;35.00;;
53207;SDS011;39093;52.788;6.940;2022-12-18T02:15:00;70.65;;;29.30;;
53207;SDS011;39093;52.788;6.940;2022-12-18T02:17:55;82.20;;;32.10;;
53207;SDS011;39093;52.788;6.940;2022-12-18T02:20:49;76.95;;;32.03;;
53207;SDS011;39093;52.788;6.940;2022-12-18T02:26:34;77.10;;;32.90;;
53207;SDS011;39093;52.788;6.940;2022-12-18T02:29:06;73.32;;;31.17;;
53207;SDS011;39093;52.788;6.940;2022-12-18T02:31:59;61.05;;;28.05;;
53207;SDS011;39093;52.788;6.940;2022-12-18T02:34:30;83.47;;;32.70;;
53207;SDS011;39093;52.788;6.940;2022-12-18T02:37:02;73.53;;;29.35;;
53207;SDS011;39093;52.788;6.940;2022-12-18T02:39:34;54.10;;;23.42;;
53207;SDS011;39093;52.788;6.940;2022-12-18T02:42:03;80.90;;;31.02;;
53207;SDS011;39093;52.788;6.940;2022-12-18T02:44:34;72.03;;;30.73;;
53207;SDS011;39093;52.788;6.940;2022-12-18T02:47:09;72.03;;;32.33;;
53207;SDS011;39093;52.788;6.940;2022-12-18T02:52:21;72.95;;;29.38;;
53207;SDS011;39093;52.788;6.940;2022-12-18T02:58:10;66.28;;;24.05;;
53207;SDS011;39093;52.788;6.940;2022-12-18T03:01:01;75.43;;;32.00;;
53207;SDS011;39093;52.788;6.940;2022-12-18T03:03:38;70.78;;;28.02;;
53207;SDS011;39093;52.788;6.940;2022-12-18T03:06:08;68.03;;;29.45;;
53207;SDS011;39093;52.788;6.940;2022-12-18T03:08:42;73.20;;;31.38;;
53207;SDS011;39093;52.788;6.940;2022-12-18T03:11:13;68.97;;;29.48;;
53207;SDS011;39093;52.788;6.940;2022-12-18T03:13:43;74.65;;;30.25;;
53207;SDS011;39093;52.788;6.940;2022-12-18T03:16:27;72.13;;;29.58;;
53207;SDS011;39093;52.788;6.940;2022-12-18T03:18:58;69.18;;;28.40;;
53207;SDS011;39093;52.788;6.940;2022-12-18T03:21:29;67.63;;;28.42;;
53207;SDS011;39093;52.788;6.940;2022-12-18T03:24:01;66.38;;;28.67;;
53207;SDS011;39093;52.788;6.940;2022-12-18T03:26:35;62.80;;;27.67;;
53207;SDS011;39093;52.788;6.940;2022-12-18T03:29:05;65.85;;;30.25;;
53207;SDS011;39093;52.788;6.940;2022-12-18T03:31:36;64.55;;;28.23;;
53207;SDS011;39093;52.788;6.940;2022-12-18T03:34:09;58.13;;;27.38;;
53207;SDS011;39093;52.788;6.940;2022-12-18T03:36:40;61.72;;;27.02;;
53207;SDS011;39093;52.788;6.940;2022-12-18T03:39:07;63.30;;;27.52;;
53207;SDS011;39093;52.788;6.940;2022-12-18T03:41:38;58.92;;;26.92;;
53207;SDS011;39093;52.788;6.940;2022-12-18T03:44:19;59.05;;;28.33;;
53207;SDS011;39093;52.788;6.940;2022-12-18T03:50:06;60.65;;;26.80;;
53207;SDS011;39093;52.788;6.940;2022-12-18T03:53:09;59.70;;;26.75;;
53207;SDS011;39093;52.788;6.940;2022-12-18T03:56:05;57.60;;;27.13;;
53207;SDS011;39093;52.788;6.940;2022-12-18T03:58:32;57.92;;;25.52;;
53207;SDS011;39093;52.788;6.940;2022-12-18T04:01:02;55.63;;;25.45;;
53207;SDS011;39093;52.788;6.940;2022-12-18T04:03:32;56.30;;;25.90;;
53207;SDS011;39093;52.788;6.940;2022-12-18T04:06:02;55.38;;;24.63;;
53207;SDS011;39093;52.788;6.940;2022-12-18T04:08:30;57.90;;;25.67;;
53207;SDS011;39093;52.788;6.940;2022-12-18T04:10:57;55.92;;;26.42;;
53207;SDS011;39093;52.788;6.940;2022-12-18T04:13:28;53.28;;;25.10;;
53207;SDS011;39093;52.788;6.940;2022-12-18T04:16:00;52.75;;;24.60;;
53207;SDS011;39093;52.788;6.940;2022-12-18T04:18:27;59.92;;;26.67;;
53207;SDS011;39093;52.788;6.940;2022-12-18T04:20:54;58.25;;;25.38;;
53207;SDS011;39093;52.788;6.940;2022-12-18T04:23:21;50.28;;;23.13;;
53207;SDS011;39093;52.788;6.940;2022-12-18T04:25:49;50.38;;;24.30;;
53207;SDS011;39093;52.788;6.940;2022-12-18T04:28:15;47.17;;;23.25;;
53207;SDS011;39093;52.788;6.940;2022-12-18T04:30:42;51.63;;;24.77;;
53207;SDS011;39093;52.788;6.940;2022-12-18T04:33:10;55.25;;;26.08;;
53207;SDS011;39093;52.788;6.940;2022-12-18T04:35:41;50.45;;;22.70;;
53207;SDS011;39093;52.788;6.940;2022-12-18T04:38:08;48.72;;;23.20;;
53207;SDS011;39093;52.788;6.940;2022-12-18T04:40:36;46.45;;;22.23;;
53207;SDS011;39093;52.788;6.940;2022-12-18T04:43:03;46.72;;;22.70;;
53207;SDS011;39093;52.788;6.940;2022-12-18T04:45:31;50.28;;;23.42;;
53207;SDS011;39093;52.788;6.940;2022-12-18T04:47:58;51.67;;;23.30;;
53207;SDS011;39093;52.788;6.940;2022-12-18T04:50:26;48.40;;;22.95;;
53207;SDS011;39093;52.788;6.940;2022-12-18T04:52:54;46.38;;;22.95;;
53207;SDS011;39093;52.788;6.940;2022-12-18T04:55:21;49.38;;;23.08;;
53207;SDS011;39093;52.788;6.940;2022-12-18T04:57:48;51.53;;;22.75;;
53207;SDS011;39093;52.788;6.940;2022-12-18T05:00:19;45.97;;;22.88;;
53207;SDS011;39093;52.788;6.940;2022-12-18T05:02:46;50.00;;;22.70;;
53207;SDS011;39093;52.788;6.940;2022-12-18T05:05:17;48.22;;;22.08;;
53207;SDS011;39093;52.788;6.940;2022-12-18T05:07:44;48.00;;;22.17;;
53207;SDS011;39093;52.788;6.940;2022-12-18T05:10:11;54.58;;;23.65;;
53207;SDS011;39093;52.788;6.940;2022-12-18T05:12:38;46.45;;;22.33;;
53207;SDS011;39093;52.788;6.940;2022-12-18T05:15:32;44.15;;;22.05;;
53207;SDS011;39093;52.788;6.940;2022-12-18T05:17:59;54.72;;;23.77;;
53207;SDS011;39093;52.788;6.940;2022-12-18T05:20:26;46.20;;;23.02;;
53207;SDS011;39093;52.788;6.940;2022-12-18T05:22:54;45.25;;;22.25;;
53207;SDS011;39093;52.788;6.940;2022-12-18T05:25:21;48.45;;;22.48;;
53207;SDS011;39093;52.788;6.940;2022-12-18T05:27:49;44.95;;;21.08;;
53207;SDS011;39093;52.788;6.940;2022-12-18T05:30:16;43.83;;;21.20;;
53207;SDS011;39093;52.788;6.940;2022-12-18T05:33:02;44.40;;;21.67;;
53207;SDS011;39093;52.788;6.940;2022-12-18T05:35:32;45.17;;;21.23;;
53207;SDS011;39093;52.788;6.940;2022-12-18T05:38:00;46.25;;;22.88;;
53207;SDS011;39093;52.788;6.940;2022-12-18T05:40:27;42.33;;;22.08;;
53207;SDS011;39093;52.788;6.940;2022-12-18T05:42:55;43.30;;;21.90;;
53207;SDS011;39093;52.788;6.940;2022-12-18T05:45:22;43.38;;;21.05;;
53207;SDS011;39093;52.788;6.940;2022-12-18T05:47:49;43.78;;;21.17;;
53207;SDS011;39093;52.788;6.940;2022-12-18T05:50:24;35.90;;;20.48;;
53207;SDS011;39093;52.788;6.940;2022-12-18T05:52:51;44.70;;;22.02;;
53207;SDS011;39093;52.788;6.940;2022-12-18T05:55:17;45.63;;;22.02;;
53207;SDS011;39093;52.788;6.940;2022-12-18T05:57:44;40.35;;;20.58;;
53207;SDS011;39093;52.788;6.940;2022-12-18T06:00:11;42.67;;;20.90;;
53207;SDS011;39093;52.788;6.940;2022-12-18T06:02:39;44.50;;;22.13;;
53207;SDS011;39093;52.788;6.940;2022-12-18T06:05:06;42.55;;;20.88;;
53207;SDS011;39093;52.788;6.940;2022-12-18T06:07:33;43.92;;;21.23;;
53207;SDS011;39093;52.788;6.940;2022-12-18T06:10:00;42.80;;;20.10;;
53207;SDS011;39093;52.788;6.940;2022-12-18T06:15:19;38.35;;;20.15;;
53207;SDS011;39093;52.788;6.940;2022-12-18T06:17:46;40.88;;;20.20;;
53207;SDS011;39093;52.788;6.940;2022-12-18T06:20:13;39.28;;;20.55;;
53207;SDS011;39093;52.788;6.940;2022-12-18T06:22:40;38.72;;;20.25;;
53207;SDS011;39093;52.788;6.940;2022-12-18T06:25:07;38.83;;;20.05;;
53207;SDS011;39093;52.788;6.940;2022-12-18T06:27:35;38.97;;;20.25;;
53207;SDS011;39093;52.788;6.940;2022-12-18T06:30:02;40.50;;;20.48;;
53207;SDS011;39093;52.788;6.940;2022-12-18T06:32:30;42.92;;;22.92;;
53207;SDS011;39093;52.788;6.940;2022-12-18T06:34:57;36.30;;;18.85;;
53207;SDS011;39093;52.788;6.940;2022-12-18T06:37:24;41.25;;;19.27;;
53207;SDS011;39093;52.788;6.940;2022-12-18T06:39:55;38.42;;;20.30;;
53207;SDS011;39093;52.788;6.940;2022-12-18T06:42:23;40.50;;;20.80;;
53207;SDS011;39093;52.788;6.940;2022-12-18T06:44:50;41.70;;;19.55;;
53207;SDS011;39093;52.788;6.940;2022-12-18T06:47:35;35.78;;;19.02;;
53207;SDS011;39093;52.788;6.940;2022-12-18T06:50:02;40.55;;;21.42;;
53207;SDS011;39093;52.788;6.940;2022-12-18T06:52:31;36.33;;;19.17;;
53207;SDS011;39093;52.788;6.940;2022-12-18T06:54:58;36.78;;;19.15;;
53207;SDS011;39093;52.788;6.940;2022-12-18T06:57:25;42.38;;;19.73;;
53207;SDS011;39093;52.788;6.940;2022-12-18T06:59:52;36.67;;;18.77;;
53207;SDS011;39093;52.788;6.940;2022-12-18T07:02:19;36.35;;;18.73;;
53207;SDS011;39093;52.788;6.940;2022-12-18T07:04:46;36.60;;;18.75;;
53207;SDS011;39093;52.788;6.940;2022-12-18T07:07:13;38.17;;;18.58;;
53207;SDS011;39093;52.788;6.940;2022-12-18T07:09:39;38.13;;;18.98;;
53207;SDS011;39093;52.788;6.940;2022-12-18T07:12:06;38.83;;;19.42;;
53207;SDS011;39093;52.788;6.940;2022-12-18T07:14:34;33.60;;;18.05;;
53207;SDS011;39093;52.788;6.940;2022-12-18T07:17:01;33.75;;;18.45;;
53207;SDS011;39093;52.788;6.940;2022-12-18T07:19:29;33.78;;;17.45;;
53207;SDS011;39093;52.788;6.940;2022-12-18T07:21:56;35.03;;;17.05;;
53207;SDS011;39093;52.788;6.940;2022-12-18T07:24:23;34.67;;;17.17;;
53207;SDS011;39093;52.788;6.940;2022-12-18T07:26:50;33.13;;;16.27;;
53207;SDS011;39093;52.788;6.940;2022-12-18T07:29:17;33.53;;;14.93;;
53207;SDS011;39093;52.788;6.940;2022-12-18T07:31:44;34.40;;;15.43;;
53207;SDS011;39093;52.788;6.940;2022-12-18T07:34:12;29.67;;;15.90;;
53207;SDS011;39093;52.788;6.940;2022-12-18T07:36:40;32.55;;;15.32;;
53207;SDS011;39093;52.788;6.940;2022-12-18T07:39:07;28.98;;;14.30;;
53207;SDS011;39093;52.788;6.940;2022-12-18T07:41:33;24.65;;;13.88;;
53207;SDS011;39093;52.788;6.940;2022-12-18T07:44:00;29.23;;;14.68;;
53207;SDS011;39093;52.788;6.940;2022-12-18T07:46:27;23.75;;;13.00;;
53207;SDS011;39093;52.788;6.940;2022-12-18T07:49:03;23.25;;;13.50;;
53207;SDS011;39093;52.788;6.940;2022-12-18T07:51:30;25.88;;;13.02;;
53207;SDS011;39093;52.788;6.940;2022-12-18T07:53:57;34.47;;;15.07;;
53207;SDS011;39093;52.788;6.940;2022-12-18T07:56:24;29.55;;;14.52;;
53207;SDS011;39093;52.788;6.940;2022-12-18T07:58:54;30.65;;;15.05;;
53207;SDS011;39093;52.788;6.940;2022-12-18T08:01:23;27.92;;;14.88;;
53207;SDS011;39093;52.788;6.940;2022-12-18T08:03:59;31.20;;;14.35;;
53207;SDS011;39093;52.788;6.940;2022-12-18T08:06:26;25.20;;;13.93;;
53207;SDS011;39093;52.788;6.940;2022-12-18T08:08:54;31.10;;;16.35;;
53207;SDS011;39093;52.788;6.940;2022-12-18T08:11:22;28.05;;;15.07;;
53207;SDS011;39093;52.788;6.940;2022-12-18T08:13:51;30.80;;;14.57;;
53207;SDS011;39093;52.788;6.940;2022-12-18T08:16:18;24.67;;;13.00;;
53207;SDS011;39093;52.788;6.940;2022-12-18T08:18:46;25.30;;;13.60;;
53207;SDS011;39093;52.788;6.940;2022-12-18T08:21:19;24.25;;;13.10;;
53207;SDS011;39093;52.788;6.940;2022-12-18T08:23:56;22.88;;;12.43;;
53207;SDS011;39093;52.788;6.940;2022-12-18T08:26:25;22.13;;;12.48;;
53207;SDS011;39093;52.788;6.940;2022-12-18T08:28:57;21.08;;;12.25;;
53207;SDS011;39093;52.788;6.940;2022-12-18T08:31:25;22.60;;;11.68;;
53207;SDS011;39093;52.788;6.940;2022-12-18T08:33:53;20.83;;;11.55;;
53207;SDS011;39093;52.788;6.940;2022-12-18T08:36:29;19.90;;;11.27;;
53207;SDS011;39093;52.788;6.940;2022-12-18T08:38:56;24.02;;;12.05;;
53207;SDS011;39093;52.788;6.940;2022-12-18T08:41:24;17.73;;;10.98;;
53207;SDS011;39093;52.788;6.940;2022-12-18T08:43:51;16.65;;;10.18;;
53207;SDS011;39093;52.788;6.940;2022-12-18T08:46:40;22.65;;;9.73;;
53207;SDS011;39093;52.788;6.940;2022-12-18T08:49:08;17.52;;;9.23;;
53207;SDS011;39093;52.788;6.940;2022-12-18T08:51:36;19.58;;;11.40;;
53207;SDS011;39093;52.788;6.940;2022-12-18T08:54:05;21.25;;;9.70;;
53207;SDS011;39093;52.788;6.940;2022-12-18T08:56:32;22.35;;;10.73;;
53207;SDS011;39093;52.788;6.940;2022-12-18T08:59:00;17.73;;;9.82;;
53207;SDS011;39093;52.788;6.940;2022-12-18T09:01:39;20.38;;;10.30;;
53207;SDS011;39093;52.788;6.940;2022-12-18T09:04:26;19.80;;;9.73;;
53207;SDS011;39093;52.788;6.940;2022-12-18T09:08:26;17.05;;;9.63;;
53207;SDS011;39093;52.788;6.940;2022-12-18T09:10:54;17.77;;;9.23;;
53207;SDS011;39093;52.788;6.940;2022-12-18T09:13:21;14.13;;;8.82;;
53207;SDS011;39093;52.788;6.940;2022-12-18T09:16:03;23.70;;;11.60;;
53207;SDS011;39093;52.788;6.940;2022-12-18T09:18:50;19.08;;;9.63;;
53207;SDS011;39093;52.788;6.940;2022-12-18T09:21:19;17.48;;;8.70;;
53207;SDS011;39093;52.788;6.940;2022-12-18T09:23:56;14.13;;;8.98;;
53207;SDS011;39093;52.788;6.940;2022-12-18T09:26:34;17.58;;;8.68;;
53207;SDS011;39093;52.788;6.940;2022-12-18T09:29:03;14.77;;;8.48;;
53207;SDS011;39093;52.788;6.940;2022-12-18T09:31:55;15.35;;;8.15;;
53207;SDS011;39093;52.788;6.940;2022-12-18T09:34:37;15.52;;;8.23;;
53207;SDS011;39093;52.788;6.940;2022-12-18T09:37:40;14.02;;;8.45;;
53207;SDS011;39093;52.788;6.940;2022-12-18T09:40:23;12.63;;;8.07;;
53207;SDS011;39093;52.788;6.940;2022-12-18T09:42:54;13.50;;;8.20;;
53207;SDS011;39093;52.788;6.940;2022-12-18T09:45:26;18.85;;;8.95;;
53207;SDS011;39093;52.788;6.940;2022-12-18T09:47:54;14.65;;;8.70;;
53207;SDS011;39093;52.788;6.940;2022-12-18T09:50:29;16.65;;;8.40;;
53207;SDS011;39093;52.788;6.940;2022-12-18T09:53:11;15.15;;;8.65;;
53207;SDS011;39093;52.788;6.940;2022-12-18T09:55:48;14.07;;;8.27;;
53207;SDS011;39093;52.788;6.940;2022-12-18T10:00:46;17.63;;;9.30;;
53207;SDS011;39093;52.788;6.940;2022-12-18T10:03:16;15.18;;;9.35;;
53207;SDS011;39093;52.788;6.940;2022-12-18T10:08:36;16.05;;;8.32;;
53207;SDS011;39093;52.788;6.940;2022-12-18T10:17:02;12.95;;;8.70;;
53207;SDS011;39093;52.788;6.940;2022-12-18T10:19:43;15.25;;;8.82;;
53207;SDS011;39093;52.788;6.940;2022-12-18T10:22:29;14.48;;;8.63;;
53207;SDS011;39093;52.788;6.940;2022-12-18T10:25:18;14.43;;;8.68;;
53207;SDS011;39093;52.788;6.940;2022-12-18T10:28:08;16.30;;;8.85;;
53207;SDS011;39093;52.788;6.940;2022-12-18T10:30:46;12.52;;;7.65;;
53207;SDS011;39093;52.788;6.940;2022-12-18T10:33:18;14.40;;;8.13;;
53207;SDS011;39093;52.788;6.940;2022-12-18T10:35:47;12.35;;;7.75;;
53207;SDS011;39093;52.788;6.940;2022-12-18T10:43:20;14.25;;;8.13;;
53207;SDS011;39093;52.788;6.940;2022-12-18T10:48:55;13.15;;;8.32;;
53207;SDS011;39093;52.788;6.940;2022-12-18T10:51:33;14.20;;;7.68;;
53207;SDS011;39093;52.788;6.940;2022-12-18T10:54:03;15.35;;;7.63;;
53207;SDS011;39093;52.788;6.940;2022-12-18T10:56:35;12.10;;;7.18;;
53207;SDS011;39093;52.788;6.940;2022-12-18T10:59:05;15.68;;;8.38;;
53207;SDS011;39093;52.788;6.940;2022-12-18T11:01:54;13.05;;;7.03;;
53207;SDS011;39093;52.788;6.940;2022-12-18T11:04:26;10.65;;;6.78;;
53207;SDS011;39093;52.788;6.940;2022-12-18T11:06:58;17.33;;;10.05;;
53207;SDS011;39093;52.788;6.940;2022-12-18T11:09:27;13.02;;;7.57;;
53207;SDS011;39093;52.788;6.940;2022-12-18T11:11:56;14.88;;;7.55;;
53207;SDS011;39093;52.788;6.940;2022-12-18T11:14:28;15.02;;;6.93;;
53207;SDS011;39093;52.788;6.940;2022-12-18T11:17:00;13.35;;;7.13;;
53207;SDS011;39093;52.788;6.940;2022-12-18T11:19:54;11.02;;;6.88;;
53207;SDS011;39093;52.788;6.940;2022-12-18T11:22:24;12.55;;;6.47;;
53207;SDS011;39093;52.788;6.940;2022-12-18T11:25:03;14.60;;;7.60;;
53207;SDS011;39093;52.788;6.940;2022-12-18T11:31:17;9.63;;;6.72;;
53207;SDS011;39093;52.788;6.940;2022-12-18T11:36:41;13.00;;;6.15;;
53207;SDS011;39093;52.788;6.940;2022-12-18T11:39:31;10.57;;;6.90;;
53207;SDS011;39093;52.788;6.940;2022-12-18T11:45:20;11.77;;;7.18;;
53207;SDS011;39093;52.788;6.940;2022-12-18T11:51:22;10.40;;;6.35;;
53207;SDS011;39093;52.788;6.940;2022-12-18T11:54:06;13.35;;;7.85;;
53207;SDS011;39093;52.788;6.940;2022-12-18T12:05:36;15.23;;;7.65;;
53207;SDS011;39093;52.788;6.940;2022-12-18T12:11:08;12.60;;;8.05;;
53207;SDS011;39093;52.788;6.940;2022-12-18T12:13:45;11.35;;;6.32;;
53207;SDS011;39093;52.788;6.940;2022-12-18T12:16:31;10.27;;;6.63;;
53207;SDS011;39093;52.788;6.940;2022-12-18T12:21:58;11.23;;;6.75;;
53207;SDS011;39093;52.788;6.940;2022-12-18T12:24:45;13.60;;;7.95;;
53207;SDS011;39093;52.788;6.940;2022-12-18T12:30:01;11.35;;;6.65;;
53207;SDS011;39093;52.788;6.940;2022-12-18T12:32:50;12.75;;;7.38;;
53207;SDS011;39093;52.788;6.940;2022-12-18T12:40:56;11.38;;;7.18;;
53207;SDS011;39093;52.788;6.940;2022-12-18T12:43:47;10.45;;;6.63;;
53207;SDS011;39093;52.788;6.940;2022-12-18T12:46:25;11.65;;;7.05;;
53207;SDS011;39093;52.788;6.940;2022-12-18T12:48:56;13.27;;;7.53;;
53207;SDS011;39093;52.788;6.940;2022-12-18T12:51:36;13.02;;;7.20;;
53207;SDS011;39093;52.788;6.940;2022-12-18T12:54:11;12.35;;;7.63;;
53207;SDS011;39093;52.788;6.940;2022-12-18T13:11:00;12.18;;;7.05;;
53207;SDS011;39093;52.788;6.940;2022-12-18T13:13:50;11.60;;;6.88;;
53207;SDS011;39093;52.788;6.940;2022-12-18T13:16:20;12.25;;;6.45;;
53207;SDS011;39093;52.788;6.940;2022-12-18T13:18:50;12.05;;;7.50;;
53207;SDS011;39093;52.788;6.940;2022-12-18T13:21:21;12.20;;;6.82;;
53207;SDS011;39093;52.788;6.940;2022-12-18T13:23:56;12.68;;;7.15;;
53207;SDS011;39093;52.788;6.940;2022-12-18T13:28:55;11.82;;;6.75;;
53207;SDS011;39093;52.788;6.940;2022-12-18T13:36:53;11.93;;;7.88;;
53207;SDS011;39093;52.788;6.940;2022-12-18T13:39:31;10.68;;;7.18;;
53207;SDS011;39093;52.788;6.940;2022-12-18T13:44:35;14.10;;;8.10;;
53207;SDS011;39093;52.788;6.940;2022-12-18T13:50:01;11.05;;;7.03;;
53207;SDS011;39093;52.788;6.940;2022-12-18T13:52:36;11.68;;;7.32;;
53207;SDS011;39093;52.788;6.940;2022-12-18T13:55:06;12.65;;;7.90;;
53207;SDS011;39093;52.788;6.940;2022-12-18T13:57:42;13.90;;;7.68;;
53207;SDS011;39093;52.788;6.940;2022-12-18T14:00:28;11.38;;;7.63;;
53207;SDS011;39093;52.788;6.940;2022-12-18T14:02:56;14.15;;;8.00;;
53207;SDS011;39093;52.788;6.940;2022-12-18T14:05:26;14.70;;;8.15;;
53207;SDS011;39093;52.788;6.940;2022-12-18T14:07:59;14.45;;;8.80;;
53207;SDS011;39093;52.788;6.940;2022-12-18T14:10:29;14.38;;;8.90;;
53207;SDS011;39093;52.788;6.940;2022-12-18T14:13:28;13.45;;;7.88;;
53207;SDS011;39093;52.788;6.940;2022-12-18T14:16:37;12.05;;;7.72;;
53207;SDS011;39093;52.788;6.940;2022-12-18T14:19:10;12.60;;;7.93;;
53207;SDS011;39093;52.788;6.940;2022-12-18T14:21:49;13.50;;;7.75;;
53207;SDS011;39093;52.788;6.940;2022-12-18T14:24:17;15.57;;;9.27;;
53207;SDS011;39093;52.788;6.940;2022-12-18T14:26:47;15.23;;;8.85;;
53207;SDS011;39093;52.788;6.940;2022-12-18T14:32:14;14.10;;;8.50;;
53207;SDS011;39093;52.788;6.940;2022-12-18T14:34:45;12.35;;;8.63;;
53207;SDS011;39093;52.788;6.940;2022-12-18T14:37:18;14.03;;;8.20;;
53207;SDS011;39093;52.788;6.940;2022-12-18T14:42:29;17.65;;;8.82;;
53207;SDS011;39093;52.788;6.940;2022-12-18T14:48:18;15.38;;;8.57;;
53207;SDS011;39093;52.788;6.940;2022-12-18T14:50:59;14.10;;;8.48;;
53207;SDS011;39093;52.788;6.940;2022-12-18T14:53:34;16.08;;;9.27;;
53207;SDS011;39093;52.788;6.940;2022-12-18T14:56:20;14.00;;;9.23;;
53207;SDS011;39093;52.788;6.940;2022-12-18T14:58:59;14.70;;;9.60;;
53207;SDS011;39093;52.788;6.940;2022-12-18T15:01:29;16.58;;;9.40;;
53207;SDS011;39093;52.788;6.940;2022-12-18T15:04:22;14.27;;;9.10;;
53207;SDS011;39093;52.788;6.940;2022-12-18T15:13:39;13.55;;;9.18;;
53207;SDS011;39093;52.788;6.940;2022-12-18T15:16:06;14.73;;;9.50;;
53207;SDS011;39093;52.788;6.940;2022-12-18T15:18:41;14.90;;;9.23;;
53207;SDS011;39093;52.788;6.940;2022-12-18T15:21:29;14.70;;;9.63;;
53207;SDS011;39093;52.788;6.940;2022-12-18T15:24:37;15.68;;;9.32;;
53207;SDS011;39093;52.788;6.940;2022-12-18T15:27:04;15.40;;;9.63;;
53207;SDS011;39093;52.788;6.940;2022-12-18T15:30:15;17.38;;;9.57;;
53207;SDS011;39093;52.788;6.940;2022-12-18T15:32:49;13.80;;;8.68;;
53207;SDS011;39093;52.788;6.940;2022-12-18T15:40:19;14.85;;;8.02;;
53207;SDS011;39093;52.788;6.940;2022-12-18T15:42:48;20.42;;;9.55;;
53207;SDS011;39093;52.788;6.940;2022-12-18T15:45:36;14.07;;;8.90;;
53207;SDS011;39093;52.788;6.940;2022-12-18T15:51:36;14.23;;;9.05;;
53207;SDS011;39093;52.788;6.940;2022-12-18T15:54:38;13.80;;;8.95;;
53207;SDS011;39093;52.788;6.940;2022-12-18T15:57:36;15.55;;;8.32;;
53207;SDS011;39093;52.788;6.940;2022-12-18T16:00:11;12.65;;;8.63;;
53207;SDS011;39093;52.788;6.940;2022-12-18T16:02:42;14.45;;;8.50;;
53207;SDS011;39093;52.788;6.940;2022-12-18T16:05:14;17.20;;;10.10;;
53207;SDS011;39093;52.788;6.940;2022-12-18T16:07:43;18.83;;;9.20;;
53207;SDS011;39093;52.788;6.940;2022-12-18T16:10:10;13.82;;;8.00;;
53207;SDS011;39093;52.788;6.940;2022-12-18T16:12:37;16.80;;;8.45;;
53207;SDS011;39093;52.788;6.940;2022-12-18T16:15:05;14.32;;;8.68;;
53207;SDS011;39093;52.788;6.940;2022-12-18T16:21:08;17.23;;;8.88;;
53207;SDS011;39093;52.788;6.940;2022-12-18T16:23:43;14.88;;;8.05;;
53207;SDS011;39093;52.788;6.940;2022-12-18T16:26:10;15.88;;;9.95;;
53207;SDS011;39093;52.788;6.940;2022-12-18T16:28:37;13.98;;;8.63;;
53207;SDS011;39093;52.788;6.940;2022-12-18T16:31:10;14.60;;;8.48;;
53207;SDS011;39093;52.788;6.940;2022-12-18T16:33:37;11.82;;;8.13;;
53207;SDS011;39093;52.788;6.940;2022-12-18T16:36:08;13.65;;;8.40;;
53207;SDS011;39093;52.788;6.940;2022-12-18T16:38:37;13.73;;;8.68;;
53207;SDS011;39093;52.788;6.940;2022-12-18T16:41:17;15.80;;;9.07;;
53207;SDS011;39093;52.788;6.940;2022-12-18T16:43:57;13.70;;;7.97;;
53207;SDS011;39093;52.788;6.940;2022-12-18T16:46:29;16.77;;;8.85;;
53207;SDS011;39093;52.788;6.940;2022-12-18T16:49:05;14.25;;;8.15;;
53207;SDS011;39093;52.788;6.940;2022-12-18T16:51:45;14.27;;;8.40;;
53207;SDS011;39093;52.788;6.940;2022-12-18T16:54:13;15.88;;;8.45;;
53207;SDS011;39093;52.788;6.940;2022-12-18T16:56:45;12.00;;;8.55;;
53207;SDS011;39093;52.788;6.940;2022-12-18T16:59:15;12.57;;;8.60;;
53207;SDS011;39093;52.788;6.940;2022-12-18T17:01:43;11.52;;;8.32;;
53207;SDS011;39093;52.788;6.940;2022-12-18T17:04:10;11.88;;;8.23;;
53207;SDS011;39093;52.788;6.940;2022-12-18T17:06:41;14.88;;;9.27;;
53207;SDS011;39093;52.788;6.940;2022-12-18T17:09:13;15.85;;;9.50;;
53207;SDS011;39093;52.788;6.940;2022-12-18T17:11:43;12.23;;;8.32;;
53207;SDS011;39093;52.788;6.940;2022-12-18T17:14:15;13.07;;;7.85;;